Time;durP1;ratioP1;P1;durP2;ratioP2;P2;SDS_P1;SDS_P2;PMS_P1;PMS_P2;Temp;Humidity;BMP_temperature;BMP_pressure;BME280_temperature;BME280_humidity;BME280_pressure;Samples;Min_cycle;Max_cycle;Signal;HPM_P1;HPM_P2
2022/01/11 00:01:29;;;;;;;8.82;6.32;;;;;;;;;;5051472;28;20026;-46
2022/01/11 00:03:55;;;;;;;8.00;5.85;;;;;;;;;;5051925;28;20446;-47
2022/01/11 00:06:37;;;;;;;9.63;6.30;;;;;;;;;;5051569;28;20037;-48
2022/01/11 00:09:18;;;;;;;10.55;7.05;;;;;;;;;;5051512;28;20521;-49
2022/01/11 00:11:44;;;;;;;7.57;5.95;;;;;;;;;;5055540;28;20022;-47
2022/01/11 00:14:10;;;;;;;9.90;6.35;;;;;;;;;;5055118;28;20372;-46
2022/01/11 00:16:36;;;;;;;9.00;6.78;;;;;;;;;;5055232;28;20116;-46
2022/01/11 00:19:06;;;;;;;9.35;6.63;;;;;;;;;;5055138;28;20490;-46
2022/01/11 00:21:32;;;;;;;9.68;7.00;;;;;;;;;;5055175;28;20021;-46
2022/01/11 00:26:42;;;;;;;8.63;6.57;;;;;;;;;;5055051;28;20052;-47
2022/01/11 00:29:08;;;;;;;9.07;7.03;;;;;;;;;;5054904;28;20033;-47
2022/01/11 00:31:34;;;;;;;11.52;7.38;;;;;;;;;;5054909;28;20033;-47
2022/01/11 00:34:02;;;;;;;10.18;6.93;;;;;;;;;;5055010;28;20107;-47
2022/01/11 00:36:40;;;;;;;10.35;7.25;;;;;;;;;;5055098;28;20036;-47
2022/01/11 00:39:06;;;;;;;8.73;6.70;;;;;;;;;;5055063;28;20037;-47
2022/01/11 00:41:32;;;;;;;8.88;6.80;;;;;;;;;;5054684;28;20057;-47
2022/01/11 00:43:58;;;;;;;10.95;7.53;;;;;;;;;;5054739;28;20502;-48
2022/01/11 00:46:24;;;;;;;11.20;7.72;;;;;;;;;;5054584;28;20036;-46
2022/01/11 00:48:50;;;;;;;10.85;7.75;;;;;;;;;;5054578;28;20025;-46
2022/01/11 00:51:16;;;;;;;9.65;7.18;;;;;;;;;;5054492;28;20025;-47
2022/01/11 00:53:42;;;;;;;12.15;8.02;;;;;;;;;;5054491;28;20021;-47
2022/01/11 00:56:08;;;;;;;10.50;7.53;;;;;;;;;;5054318;28;20041;-46
2022/01/11 00:58:34;;;;;;;10.02;7.82;;;;;;;;;;5054688;28;20028;-47
2022/01/11 01:01:00;;;;;;;10.82;7.32;;;;;;;;;;5054334;28;20477;-47
2022/01/11 01:03:26;;;;;;;10.30;7.35;;;15.10;88.20;;;;;;5054025;28;20069;-47
2022/01/11 01:05:52;;;;;;;11.35;7.93;;;;;;;;;;5054223;28;20498;-46
2022/01/11 01:08:19;;;;;;;9.27;7.10;;;;;;;;;;5054178;28;20044;-47
2022/01/11 01:10:48;;;;;;;10.98;7.45;;;;;;;;;;5054200;28;20563;-46
2022/01/11 01:13:17;;;;;;;11.60;8.40;;;15.00;90.10;;;;;;5054336;28;20025;-47
2022/01/11 01:15:47;;;;;;;10.05;7.75;;;15.10;90.10;;;;;;5054157;28;20055;-48
2022/01/11 01:18:15;;;;;;;10.82;7.95;;;15.00;88.70;;;;;;5054075;28;20033;-47
2022/01/11 01:20:42;;;;;;;11.52;7.60;;;;;;;;;;5053725;28;20048;-47
2022/01/11 01:23:08;;;;;;;10.45;7.70;;;;;;;;;;5053950;28;20029;-47
2022/01/11 01:25:34;;;;;;;12.30;8.27;;;;;;;;;;5053901;28;20063;-47
2022/01/11 01:28:00;;;;;;;11.13;8.32;;;;;;;;;;5053892;28;20205;-48
2022/01/11 01:30:26;;;;;;;9.95;7.60;;;;;;;;;;5053755;28;20031;-47
2022/01/11 01:32:52;;;;;;;9.77;7.28;;;;;;;;;;5053827;28;20099;-46
2022/01/11 01:35:21;;;;;;;11.10;8.27;;;15.00;90.20;;;;;;5053660;28;20048;-48
2022/01/11 01:37:47;;;;;;;10.35;7.65;;;;;;;;;;5053627;28;20466;-48
2022/01/11 01:40:16;;;;;;;11.07;7.85;;;;;;;;;;5053636;28;20037;-46
2022/01/11 01:42:42;;;;;;;10.90;8.00;;;;;;;;;;5053599;28;20071;-47
2022/01/11 01:45:09;;;;;;;13.00;7.85;;;;;;;;;;5053514;28;20025;-47
2022/01/11 01:47:35;;;;;;;8.98;6.88;;;;;;;;;;5053741;28;20087;-46
2022/01/11 01:50:02;;;;;;;11.00;8.40;;;;;;;;;;5053706;28;20025;-48
2022/01/11 01:52:28;;;;;;;9.40;7.78;;;;;;;;;;5053335;28;20029;-47
2022/01/11 01:54:54;;;;;;;10.50;7.35;;;;;;;;;;5053310;28;20051;-47
2022/01/11 01:57:20;;;;;;;10.63;7.82;;;;;;;;;;5053302;28;20438;-47
2022/01/11 01:59:46;;;;;;;11.48;7.65;;;;;;;;;;5053209;28;20028;-46
2022/01/11 02:02:13;;;;;;;9.85;7.30;;;;;;;;;;5052948;28;20044;-47
2022/01/11 02:04:40;;;;;;;10.70;8.18;;;14.80;87.80;;;;;;5053156;28;20036;-46
2022/01/11 02:07:06;;;;;;;10.18;7.20;;;;;;;;;;5053384;28;20384;-47
2022/01/11 02:09:32;;;;;;;9.60;7.30;;;;;;;;;;5053042;28;20317;-46
2022/01/11 02:11:59;;;;;;;10.25;8.05;;;;;;;;;;5053065;28;20035;-46
2022/01/11 02:14:26;;;;;;;9.27;7.07;;;;;;;;;;5052860;28;20556;-46
2022/01/11 02:16:52;;;;;;;10.32;7.45;;;;;;;;;;5053158;28;20447;-48
2022/01/11 02:19:18;;;;;;;10.05;7.32;;;;;;;;;;5052878;28;20053;-47
2022/01/11 02:21:44;;;;;;;9.23;7.25;;;;;;;;;;5052778;28;20040;-47
2022/01/11 02:24:10;;;;;;;9.43;6.85;;;;;;;;;;5052787;28;20029;-47
2022/01/11 02:26:36;;;;;;;11.60;7.93;;;;;;;;;;5052802;28;20106;-46
2022/01/11 02:29:02;;;;;;;10.27;7.57;;;;;;;;;;5052752;28;20044;-47
2022/01/11 02:31:29;;;;;;;10.02;7.88;;;;;;;;;;5052575;28;20021;-46
2022/01/11 02:33:58;;;;;;;9.85;6.88;;;14.70;90.50;;;;;;5052209;28;20033;-46
2022/01/11 02:36:32;;;;;;;10.85;7.82;;;14.70;84.80;;;;;;5052668;28;20037;-47
2022/01/11 02:38:58;;;;;;;10.93;7.30;;;;;;;;;;5052666;28;20103;-46
2022/01/11 02:41:27;;;;;;;9.77;7.65;;;14.70;90.50;;;;;;5052580;28;20085;-47
2022/01/11 02:43:53;;;;;;;8.25;6.25;;;14.60;88.70;;;;;;5052473;28;20029;-47
2022/01/11 02:46:19;;;;;;;10.57;7.75;;;;;;;;;;5052444;28;20535;-47
2022/01/11 02:48:46;;;;;;;10.93;8.18;;;;;;;;;;5052504;28;20387;-48
2022/01/11 02:51:12;;;;;;;10.98;7.50;;;;;;;;;;5052323;28;20039;-47
2022/01/11 02:53:42;;;;;;;8.82;7.07;;;14.70;90.40;;;;;;5052532;28;20029;-46
2022/01/11 02:56:08;;;;;;;9.07;6.70;;;;;;;;;;5052141;28;20064;-47
2022/01/11 02:58:34;;;;;;;10.10;7.30;;;;;;;;;;5052194;28;20065;-46
2022/01/11 03:01:00;;;;;;;8.82;6.43;;;;;;;;;;5052232;28;20033;-47
2022/01/11 03:03:26;;;;;;;8.63;6.95;;;;;;;;;;5051989;28;20076;-46
2022/01/11 03:05:57;;;;;;;9.52;6.80;;;;;;;;;;5052157;28;20035;-47
2022/01/11 03:08:27;;;;;;;7.82;6.60;;;14.50;90.30;;;;;;5052117;28;20479;-46
2022/01/11 03:10:53;;;;;;;9.80;6.97;;;;;;;;;;5052174;28;20075;-47
2022/01/11 03:13:19;;;;;;;8.95;6.45;;;;;;;;;;5052058;28;20112;-48
2022/01/11 03:15:46;;;;;;;10.07;7.50;;;;;;;;;;5052022;28;20048;-47
2022/01/11 03:18:13;;;;;;;11.15;7.47;;;14.50;87.40;;;;;;5052088;28;20029;-47
2022/01/11 03:20:40;;;;;;;9.77;6.88;;;14.60;87.20;;;;;;5052086;28;20025;-48
2022/01/11 03:23:06;;;;;;;9.48;6.75;;;14.50;90.00;;;;;;5052035;28;20513;-47
2022/01/11 03:25:33;;;;;;;9.07;6.95;;;;;;;;;;5052049;28;20044;-46
2022/01/11 03:27:59;;;;;;;9.70;7.03;;;;;;;;;;5051965;28;20052;-47
2022/01/11 03:30:25;;;;;;;7.75;6.30;;;;;;;;;;5052244;28;20052;-46
2022/01/11 03:32:51;;;;;;;10.00;6.13;;;;;;;;;;5051888;28;20061;-46
2022/01/11 03:35:17;;;;;;;8.38;6.15;;;;;;;;;;5051824;28;20040;-48
2022/01/11 03:37:44;;;;;;;9.00;6.47;;;;;;;;;;5051857;28;20082;-46
2022/01/11 03:40:13;;;;;;;8.60;7.05;;;14.40;90.30;;;;;;5051811;28;20498;-46
2022/01/11 03:42:40;;;;;;;8.23;6.43;;;;;;;;;;5051960;28;20118;-47
2022/01/11 03:45:07;;;;;;;9.55;6.53;;;14.50;90.30;;;;;;5054726;28;20108;-47
2022/01/11 03:47:33;;;;;;;10.40;7.18;;;;;;;;;;5055688;28;20048;-47
2022/01/11 03:49:59;;;;;;;7.05;5.78;;;;;;;;;;5055977;28;20025;-46
2022/01/11 03:52:26;;;;;;;7.78;6.53;;;;;;;;;;5055642;28;20402;-46
2022/01/11 03:57:21;;;;;;;7.90;6.28;;;14.30;89.10;;;;;;5055597;28;20036;-47
2022/01/11 03:59:47;;;;;;;7.82;6.13;;;;;;;;;;5055558;28;20033;-46
2022/01/11 04:02:14;;;;;;;10.00;6.18;;;;;;;;;;5055329;28;20064;-47
2022/01/11 04:04:40;;;;;;;7.63;5.85;;;;;;;;;;5055474;28;20037;-50
2022/01/11 04:07:06;;;;;;;9.52;6.20;;;;;;;;;;5055400;28;20021;-47
2022/01/11 04:09:32;;;;;;;10.35;7.22;;;;;;;;;;5055326;28;20471;-48
2022/01/11 04:11:58;;;;;;;7.78;5.72;;;;;;;;;;5055272;28;20033;-49
2022/01/11 04:14:27;;;;;;;8.55;6.22;;;;;;;;;;5055172;28;20483;-50
2022/01/11 04:16:53;;;;;;;7.18;6.20;;;;;;;;;;5055458;28;20463;-46
2022/01/11 04:19:22;;;;;;;8.02;5.50;;;14.30;85.40;;;;;;5055443;28;20395;-47
2022/01/11 04:21:48;;;;;;;8.38;5.80;;;14.30;90.70;;;;;;5055129;28;20051;-47
2022/01/11 04:24:14;;;;;;;9.57;7.10;;;;;;;;;;5054996;28;20032;-45
2022/01/11 04:26:41;;;;;;;6.80;6.10;;;;;;;;;;5054999;28;20025;-47
2022/01/11 04:29:07;;;;;;;9.07;6.53;;;;;;;;;;5054917;28;20029;-47
2022/01/11 04:31:33;;;;;;;7.35;5.75;;;;;;;;;;5055185;28;20442;-47
2022/01/11 04:33:59;;;;;;;7.65;6.30;;;;;;;;;;5054815;28;20025;-47
2022/01/11 04:36:25;;;;;;;9.32;6.65;;;;;;;;;;5054902;28;20029;-46
2022/01/11 04:38:51;;;;;;;7.53;5.60;;;;;;;;;;5054928;28;20029;-47
2022/01/11 04:41:17;;;;;;;8.05;5.85;;;;;;;;;;5054782;28;20031;-47
2022/01/11 04:43:43;;;;;;;7.05;6.13;;;;;;;;;;5054723;28;20040;-45
2022/01/11 04:46:09;;;;;;;7.88;5.97;;;;;;;;;;5054637;28;20029;-47
2022/01/11 04:48:35;;;;;;;9.73;6.53;;;;;;;;;;5054627;28;20056;-47
2022/01/11 04:51:03;;;;;;;7.95;6.30;;;14.10;87.40;;;;;;5054575;28;20491;-48
2022/01/11 04:53:29;;;;;;;8.40;5.80;;;;;;;;;;5054488;28;20032;-47
2022/01/11 04:55:55;;;;;;;9.55;6.50;;;;;;;;;;5053833;28;20067;-46
2022/01/11 04:58:21;;;;;;;8.57;6.32;;;;;;;;;;5054661;28;20017;-46
2022/01/11 05:00:47;;;;;;;7.90;6.20;;;;;;;;;;5054358;28;20058;-46
2022/01/11 05:03:13;;;;;;;7.18;5.65;;;;;;;;;;5054072;28;20056;-46
2022/01/11 05:05:39;;;;;;;6.70;5.70;;;;;;;;;;5054289;28;20071;-47
2022/01/11 05:08:05;;;;;;;11.45;6.80;;;;;;;;;;5054227;28;20029;-46
2022/01/11 05:10:32;;;;;;;9.65;5.95;;;;;;;;;;5054165;28;20442;-47
2022/01/11 05:12:58;;;;;;;7.28;5.75;;;;;;;;;;5054150;28;20441;-47
2022/01/11 05:15:25;;;;;;;7.32;5.95;;;;;;;;;;5054065;28;20040;-47
2022/01/11 05:17:51;;;;;;;8.90;6.25;;;;;;;;;;5054163;28;20360;-46
2022/01/11 05:20:17;;;;;;;8.02;6.13;;;14.00;87.40;;;;;;5054028;28;20395;-47
2022/01/11 05:22:45;;;;;;;7.65;6.07;;;;;;;;;;5053949;28;20086;-47
2022/01/11 05:25:14;;;;;;;10.07;6.53;;;14.00;90.20;;;;;;5054253;28;20032;-46
2022/01/11 05:27:41;;;;;;;7.28;5.95;;;14.00;87.90;;;;;;5054220;28;20055;-46
2022/01/11 05:30:08;;;;;;;8.70;5.90;;;14.00;90.30;;;;;;5053834;28;20044;-46
2022/01/11 05:32:35;;;;;;;7.93;5.90;;;;;;;;;;5053734;28;20023;-47
2022/01/11 05:35:03;;;;;;;9.18;5.80;;;14.00;87.90;;;;;;5053938;28;20558;-46
2022/01/11 05:37:29;;;;;;;7.75;5.60;;;;;;;;;;5053711;28;20052;-47
2022/01/11 05:39:55;;;;;;;9.15;6.35;;;;;;;;;;5053667;28;20083;-47
2022/01/11 05:42:22;;;;;;;7.00;5.47;;;;;;;;;;5053619;28;20021;-47
2022/01/11 05:44:48;;;;;;;8.95;5.80;;;;;;;;;;5053594;28;20304;-47
2022/01/11 05:47:14;;;;;;;7.38;5.40;;;;;;;;;;5053459;28;20039;-45
2022/01/11 05:49:40;;;;;;;6.20;5.22;;;;;;;;;;5053747;28;20484;-46
2022/01/11 05:52:07;;;;;;;7.35;5.78;;;;;;;;;;5053477;28;20413;-47
2022/01/11 05:54:32;;;;;;;7.40;5.75;;;;;;;;;;5053254;28;20032;-46
2022/01/11 05:56:58;;;;;;;7.97;6.43;;;;;;;;;;5053305;28;20112;-46
2022/01/11 05:59:25;;;;;;;8.23;6.80;;;;;;;;;;5053232;28;20029;-47
2022/01/11 06:01:51;;;;;;;8.55;6.20;;;;;;;;;;5052979;28;20047;-47
2022/01/11 06:04:16;;;;;;;8.80;5.97;;;;;;;;;;5053201;28;20050;-45
2022/01/11 06:06:43;;;;;;;8.73;6.35;;;;;;;;;;5052833;28;20059;-46
2022/01/11 06:09:09;;;;;;;9.10;5.22;;;;;;;;;;5052528;28;20064;-46
2022/01/11 06:11:35;;;;;;;7.10;4.78;;;;;;;;;;5053352;28;20451;-49
2022/01/11 06:14:01;;;;;;;8.25;5.38;;;;;;;;;;5052875;28;20060;-48
2022/01/11 06:16:27;;;;;;;7.10;5.20;;;;;;;;;;5052913;28;20037;-46
2022/01/11 06:18:53;;;;;;;7.00;5.35;;;;;;;;;;5052973;28;20021;-47
2022/01/11 06:21:20;;;;;;;8.52;5.28;;;;;;;;;;5053058;28;20029;-47
2022/01/11 06:23:46;;;;;;;8.43;5.68;;;;;;;;;;5052794;28;20039;-48
2022/01/11 06:26:15;;;;;;;6.03;4.75;;;14.90;86.30;;;;;;5052735;28;20021;-47
2022/01/11 06:28:41;;;;;;;5.85;4.40;;;;;;;;;;5053047;28;20021;-46
2022/01/11 06:31:08;;;;;;;6.63;4.97;;;;;;;;;;5052703;28;20021;-47
2022/01/11 06:33:34;;;;;;;7.53;5.20;;;;;;;;;;5052575;28;20037;-48
2022/01/11 06:36:00;;;;;;;8.27;5.55;;;;;;;;;;5051244;28;20508;-47
2022/01/11 06:38:26;;;;;;;9.55;5.97;;;;;;;;;;5052552;28;20430;-48
2022/01/11 06:40:52;;;;;;;9.15;5.50;;;;;;;;;;5052499;28;20059;-47
2022/01/11 06:43:18;;;;;;;6.65;5.15;;;;;;;;;;5052516;28;20029;-46
2022/01/11 06:45:44;;;;;;;6.70;5.43;;;;;;;;;;5052452;28;20395;-46
2022/01/11 06:48:10;;;;;;;9.55;6.18;;;;;;;;;;5052629;28;20029;-46
2022/01/11 06:50:36;;;;;;;7.82;5.55;;;;;;;;;;5052414;28;20032;-46
2022/01/11 06:53:03;;;;;;;6.75;5.68;;;;;;;;;;5052500;28;20111;-47
2022/01/11 06:55:29;;;;;;;7.32;5.70;;;;;;;;;;5052310;28;20065;-46
2022/01/11 06:57:55;;;;;;;8.02;6.32;;;;;;;;;;5052642;28;20032;-46
2022/01/11 07:00:21;;;;;;;10.35;6.13;;;;;;;;;;5052362;28;20087;-47
2022/01/11 07:02:50;;;;;;;8.27;7.10;;;;;;;;;;5052032;28;20098;-46
2022/01/11 07:05:17;;;;;;;7.93;6.20;;;14.30;86.70;;;;;;5052249;28;20029;-48
2022/01/11 07:07:43;;;;;;;8.77;6.88;;;14.40;87.40;;;;;;5052154;28;20069;-47
2022/01/11 07:10:09;;;;;;;7.82;6.38;;;;;;;;;;5052251;28;20029;-47
2022/01/11 07:12:35;;;;;;;8.00;6.10;;;;;;;;;;5052475;28;20446;-46
2022/01/11 07:15:01;;;;;;;8.23;6.35;;;;;;;;;;5052141;28;20041;-47
2022/01/11 07:17:27;;;;;;;7.00;6.07;;;;;;;;;;5052226;28;20071;-47
2022/01/11 07:19:53;;;;;;;6.85;5.45;;;;;;;;;;5056980;28;20033;-48
2022/01/11 07:22:19;;;;;;;8.07;5.72;;;;;;;;;;5058758;28;20021;-47
2022/01/11 07:24:45;;;;;;;10.43;5.70;;;;;;;;;;5058820;28;20107;-47
2022/01/11 07:27:11;;;;;;;8.55;6.25;;;;;;;;;;5058709;28;20028;-46
2022/01/11 07:29:37;;;;;;;8.82;5.90;;;;;;;;;;5058473;28;20048;-46
2022/01/11 07:32:04;;;;;;;7.45;5.47;;;;;;;;;;5058619;28;20483;-46
2022/01/11 07:34:29;;;;;;;8.40;5.60;;;;;;;;;;5058646;28;20025;-47
2022/01/11 07:36:55;;;;;;;10.82;5.78;;;;;;;;;;5058645;28;20029;-47
2022/01/11 07:39:21;;;;;;;9.10;5.75;;;;;;;;;;5058668;28;20025;-47
2022/01/11 07:41:48;;;;;;;9.27;5.72;;;;;;;;;;5058599;28;20078;-46
2022/01/11 07:44:14;;;;;;;10.52;5.85;;;;;;;;;;5058768;28;20032;-47
2022/01/11 07:46:40;;;;;;;11.90;6.22;;;14.70;90.10;;;;;;5058539;28;20506;-47
2022/01/11 07:49:07;;;;;;;11.43;5.90;;;;;;;;;;5058490;28;20032;-47
2022/01/11 07:51:33;;;;;;;8.60;5.18;;;;;;;;;;5058518;28;20033;-46
2022/01/11 07:53:59;;;;;;;10.32;5.95;;;;;;;;;;5058775;28;20019;-47
2022/01/11 07:56:25;;;;;;;8.55;5.38;;;;;;;;;;5058722;28;20483;-47
2022/01/11 07:58:51;;;;;;;13.50;6.13;;;;;;;;;;5058842;28;20066;-46
2022/01/11 08:01:17;;;;;;;11.90;6.65;;;;;;;;;;5058296;28;20471;-47
2022/01/11 08:03:43;;;;;;;11.30;6.13;;;;;;;;;;5058199;28;20498;-47
2022/01/11 08:06:09;;;;;;;14.32;6.50;;;;;;;;;;5058282;28;20033;-48
2022/01/11 08:08:35;;;;;;;7.45;5.82;;;;;;;;;;5058285;28;20033;-46
2022/01/11 08:11:02;;;;;;;9.80;5.78;;;;;;;;;;5058238;28;20029;-47
2022/01/11 08:13:28;;;;;;;9.68;5.78;;;;;;;;;;5058279;28;20060;-46
2022/01/11 08:15:54;;;;;;;10.65;6.55;;;;;;;;;;5058422;28;20118;-46
2022/01/11 08:18:20;;;;;;;7.78;5.75;;;;;;;;;;5058293;28;20300;-47
2022/01/11 08:20:47;;;;;;;8.77;6.00;;;;;;;;;;5058278;28;20612;-47
2022/01/11 08:23:13;;;;;;;7.55;5.55;;;;;;;;;;5058385;28;20052;-46
2022/01/11 08:25:39;;;;;;;8.82;5.70;;;;;;;;;;5058309;28;20031;-46
2022/01/11 08:28:05;;;;;;;8.30;5.47;;;;;;;;;;5057995;28;20449;-47
2022/01/11 08:30:31;;;;;;;7.78;5.00;;;;;;;;;;5055816;28;20552;-46
2022/01/11 08:32:57;;;;;;;8.38;5.47;;;;;;;;;;5054900;28;20365;-48
2022/01/11 08:35:24;;;;;;;8.15;5.35;;;;;;;;;;5054834;28;20048;-47
2022/01/11 08:37:50;;;;;;;8.63;4.75;;;;;;;;;;5054986;28;20029;-47
2022/01/11 08:40:17;;;;;;;8.50;4.82;;;;;;;;;;5054797;28;20025;-47
2022/01/11 08:42:43;;;;;;;6.55;4.85;;;;;;;;;;5054788;28;20033;-47
2022/01/11 08:45:09;;;;;;;7.63;4.97;;;;;;;;;;5054981;28;20029;-47
2022/01/11 08:47:35;;;;;;;7.72;4.95;;;;;;;;;;5054705;28;20029;-47
2022/01/11 08:50:04;;;;;;;7.05;4.70;;;14.60;87.40;;;;;;5054632;28;20032;-47
2022/01/11 08:52:30;;;;;;;7.75;4.50;;;;;;;;;;5054864;28;20032;-46
2022/01/11 08:54:56;;;;;;;9.23;4.88;;;14.70;84.40;;;;;;5054506;28;20065;-47
2022/01/11 08:57:22;;;;;;;8.93;4.43;;;;;;;;;;5054520;28;20549;-47
2022/01/11 08:59:49;;;;;;;4.38;3.70;;;14.70;84.60;;;;;;5054542;28;20032;-47
2022/01/11 09:02:15;;;;;;;5.13;3.90;;;14.70;87.20;;;;;;5054140;28;20076;-46
2022/01/11 09:04:42;;;;;;;6.82;3.85;;;;;;;;;;5054420;28;20035;-47
2022/01/11 09:07:08;;;;;;;5.53;4.13;;;;;;;;;;5054302;28;20029;-47
2022/01/11 09:09:34;;;;;;;8.68;4.70;;;;;;;;;;5054280;28;20033;-48
2022/01/11 09:12:08;;;;;;;5.65;4.47;;;14.50;86.70;;;;;;5054224;28;20032;-47
2022/01/11 09:14:34;;;;;;;4.68;4.20;;;;;;;;;;5054140;28;20037;-47
2022/01/11 09:17:02;;;;;;;6.10;4.50;;;;;;;;;;5054052;28;20025;-47
2022/01/11 09:19:29;;;;;;;5.80;3.90;;;14.50;84.70;;;;;;5054588;28;20032;-47
2022/01/11 09:21:55;;;;;;;6.63;3.78;;;;;;;;;;5054044;28;20053;-46
2022/01/11 09:24:21;;;;;;;5.90;3.92;;;;;;;;;;5054272;28;20110;-47
2022/01/11 09:26:48;;;;;;;5.60;3.60;;;14.50;87.20;;;;;;5053954;28;20547;-47
2022/01/11 09:29:15;;;;;;;6.32;3.97;;;14.50;87.20;;;;;;5053806;28;20029;-47
2022/01/11 09:31:41;;;;;;;4.95;3.70;;;;;;;;;;5053981;28;20032;-47
2022/01/11 09:34:07;;;;;;;4.82;3.90;;;;;;;;;;5054106;28;20092;-47
2022/01/11 09:36:33;;;;;;;5.60;3.47;;;;;;;;;;5053741;28;20055;-47
2022/01/11 09:38:59;;;;;;;4.88;3.30;;;;;;;;;;5053790;28;20033;-47
2022/01/11 09:41:25;;;;;;;4.75;3.17;;;;;;;;;;5053275;28;20040;-47
2022/01/11 09:43:51;;;;;;;4.57;3.40;;;;;;;;;;5053625;28;20108;-48
2022/01/11 09:46:18;;;;;;;5.35;3.88;;;;;;;;;;5053613;28;20040;-47
2022/01/11 09:48:45;;;;;;;4.22;3.47;;;;;;;;;;5053484;28;20067;-48
2022/01/11 09:51:11;;;;;;;4.82;3.42;;;;;;;;;;5053620;28;20029;-46
2022/01/11 09:53:37;;;;;;;4.18;2.88;;;;;;;;;;5053455;28;20025;-46
2022/01/11 09:56:06;;;;;;;4.68;3.13;;;14.50;85.60;;;;;;5052102;28;20047;-46
2022/01/11 09:58:33;;;;;;;3.83;3.08;;;;;;;;;;5053304;28;20017;-47
2022/01/11 10:00:59;;;;;;;4.72;2.95;;;;;;;;;;5053556;28;20029;-46
2022/01/11 10:03:25;;;;;;;3.80;3.08;;;;;;;;;;5052950;28;20099;-47
2022/01/11 10:05:51;;;;;;;5.95;3.35;;;;;;;;;;5053306;28;20468;-48
2022/01/11 10:08:20;;;;;;;5.55;3.08;;;14.70;80.70;;;;;;5053139;28;20479;-46
2022/01/11 10:10:47;;;;;;;4.80;3.23;;;;;;;;;;5053465;28;20025;-46
2022/01/11 10:13:28;;;;;;;3.95;3.05;;;14.70;86.60;;;;;;5053098;28;20036;-46
2022/01/11 10:15:54;;;;;;;5.90;2.88;;;;;;;;;;5052997;28;20102;-46
2022/01/11 10:18:37;;;;;;;6.75;3.78;;;14.60;80.70;;;;;;5053201;28;20376;-47
2022/01/11 10:21:33;;;;;;;4.88;3.55;;;14.50;80.50;;;;;;5053341;28;20033;-48
2022/01/11 10:23:59;;;;;;;5.07;3.25;;;;;;;;;;5053198;28;20020;-46
2022/01/11 10:26:44;;;;;;;4.57;3.30;;;14.40;80.60;;;;;;5052879;28;20036;-47
2022/01/11 10:29:25;;;;;;;4.93;3.13;;;14.10;80.50;;;;;;5053339;28;20025;-47
2022/01/11 10:31:52;;;;;;;4.97;3.22;;;14.40;88.10;;;;;;5053030;28;20033;-47
2022/01/11 10:34:25;;;;;;;5.68;3.40;;;14.30;87.40;;;;;;5052885;28;20108;-46
2022/01/11 10:36:52;;;;;;;3.47;2.40;;;;;;;;;;5053019;28;20021;-47
2022/01/11 10:39:24;;;;;;;5.32;3.15;;;14.50;81.50;;;;;;5052829;28;20029;-45
2022/01/11 10:41:50;;;;;;;4.03;2.90;;;;;;;;;;5052735;28;20025;-46
2022/01/11 10:44:54;;;;;;;4.82;2.55;;;14.60;87.80;;;;;;5052623;28;20040;-47
2022/01/11 10:47:34;;;;;;;3.25;2.53;;;14.70;81.60;;;;;;5052657;28;20060;-47
2022/01/11 10:50:07;;;;;;;3.67;2.80;;;14.70;87.60;;;;;;5052559;28;20387;-47
2022/01/11 10:52:34;;;;;;;4.35;2.50;;;;;;;;;;5052382;28;20033;-47
2022/01/11 10:55:03;;;;;;;4.28;2.80;;;14.80;85.80;;;;;;5052099;28;20040;-46
2022/01/11 10:57:37;;;;;;;4.95;2.58;;;14.80;87.10;;;;;;5052354;28;20013;-46
2022/01/11 11:00:13;;;;;;;3.60;2.83;;;14.70;87.20;;;;;;5052450;28;20100;-47
2022/01/11 11:02:40;;;;;;;4.63;2.88;;;;;;;;;;5052125;28;20052;-46
2022/01/11 11:05:19;;;;;;;4.78;3.08;;;15.00;81.00;;;;;;5052512;28;20064;-47
2022/01/11 11:07:55;;;;;;;2.80;2.58;;;15.00;87.10;;;;;;5052256;28;20029;-45
2022/01/11 11:10:32;;;;;;;3.88;2.58;;;;;;;;;;5052610;28;20029;-47
2022/01/11 11:12:59;;;;;;;5.88;3.00;;;;;;;;;;5052520;28;20462;-47
2022/01/11 11:15:43;;;;;;;3.35;2.50;;;14.90;81.20;;;;;;5052346;28;20445;-47
2022/01/11 11:18:26;;;;;;;3.72;2.70;;;14.80;87.60;;;;;;5052231;28;20025;-47
2022/01/11 11:20:52;;;;;;;3.55;2.65;;;;;;;;;;5052206;28;20029;-47
2022/01/11 11:23:19;;;;;;;3.50;2.38;;;;;;;;;;5052546;28;20025;-47
2022/01/11 11:25:45;;;;;;;4.07;2.88;;;;;;;;;;5052120;28;20390;-46
2022/01/11 11:28:11;;;;;;;5.90;3.00;;;;;;;;;;5052452;28;20108;-46
2022/01/11 11:30:37;;;;;;;4.55;2.95;;;;;;;;;;5052310;28;20082;-46
2022/01/11 11:33:03;;;;;;;4.20;2.80;;;;;;;;;;5052049;28;20116;-46
2022/01/11 11:35:29;;;;;;;2.95;2.05;;;;;;;;;;5052023;28;20444;-47
2022/01/11 11:38:00;;;;;;;4.43;2.70;;;14.60;88.10;;;;;;5050705;28;20474;-47
2022/01/11 11:40:27;;;;;;;4.10;2.92;;;14.50;88.20;;;;;;5050730;28;20471;-47
2022/01/11 11:43:00;;;;;;;5.20;3.28;;;14.50;87.70;;;;;;5052316;28;20021;-48
2022/01/11 11:45:31;;;;;;;5.53;3.15;;;14.50;88.10;;;;;;5051938;28;20112;-47
2022/01/11 11:48:08;;;;;;;2.67;2.10;;;14.50;88.50;;;;;;5051935;28;20028;-47
2022/01/11 11:50:46;;;;;;;4.78;2.53;;;14.40;88.50;;;;;;5051937;28;20032;-47
2022/01/11 11:53:22;;;;;;;3.55;2.45;;;14.50;88.80;;;;;;5051787;28;20255;-47
2022/01/11 11:55:48;;;;;;;2.72;2.25;;;;;;;;;;5052030;28;20036;-47
2022/01/11 11:58:20;;;;;;;4.68;2.80;;;14.60;89.00;;;;;;5051865;28;20368;-47
2022/01/11 12:00:46;;;;;;;3.60;2.50;;;;;;;;;;5051847;28;20025;-47
2022/01/11 12:03:22;;;;;;;7.53;2.60;;;14.60;82.00;;;;;;5051467;28;20511;-47
2022/01/11 12:05:48;;;;;;;4.53;2.75;;;;;;;;;;5052496;28;20025;-48
2022/01/11 12:08:26;;;;;;;4.80;2.72;;;14.40;82.20;;;;;;5055479;28;20029;-46
2022/01/11 12:10:55;;;;;;;3.42;2.50;;;14.40;88.10;;;;;;5055395;28;20041;-48
2022/01/11 12:13:49;;;;;;;3.67;2.85;;;14.30;82.10;;;;;;5055450;28;20021;-48
2022/01/11 12:16:24;;;;;;;5.50;2.70;;;14.30;82.20;;;;;;5053433;28;20503;-47
2022/01/11 12:18:51;;;;;;;4.13;3.03;;;14.30;87.00;;;;;;5054104;28;20399;-45
2022/01/11 12:21:17;;;;;;;4.65;3.17;;;;;;;;;;5055040;28;20056;-47
2022/01/11 12:23:47;;;;;;;6.07;3.50;;;14.30;82.30;;;;;;5055245;28;20136;-46
2022/01/11 12:26:16;;;;;;;;;;;14.20;88.80;;;;;;5055556;28;20033;-46
2022/01/11 12:29:00;;;;;;;6.00;2.97;;;14.20;86.00;;;;;;5055437;28;20025;-47
2022/01/11 12:31:28;;;;;;;3.97;2.60;;;14.20;89.50;;;;;;5055117;28;20029;-46
2022/01/11 12:33:55;;;;;;;4.55;2.63;;;;;;;;;;5055268;28;20032;-46
2022/01/11 12:36:21;;;;;;;4.35;2.90;;;;;;;;;;5055179;28;20391;-46
2022/01/11 12:39:04;;;;;;;3.13;2.65;;;14.20;82.70;;;;;;5054978;28;20108;-47
2022/01/11 12:41:33;;;;;;;3.28;2.38;;;14.40;89.10;;;;;;5055161;28;20047;-47
2022/01/11 12:44:23;;;;;;;5.03;2.53;;;14.40;82.90;;;;;;5055040;28;20028;-48
2022/01/11 12:46:54;;;;;;;3.85;3.10;;;14.50;88.90;;;;;;5055090;28;20025;-48
2022/01/11 12:49:22;;;;;;;3.42;2.40;;;14.60;88.70;;;;;;5055019;28;20071;-47
2022/01/11 12:52:10;;;;;;;2.92;2.17;;;;;;;;;;5054759;28;20053;-47
2022/01/11 12:54:38;;;;;;;4.50;2.65;;;14.80;88.70;;;;;;5054142;28;20033;-48
2022/01/11 12:57:30;;;;;;;4.27;2.67;;;14.80;82.20;;;;;;5054628;28;20041;-49
2022/01/11 13:00:07;;;;;;;2.75;2.28;;;14.90;82.20;;;;;;5051869;28;20037;-47
2022/01/11 13:02:35;;;;;;;4.40;2.92;;;14.90;88.50;;;;;;5054221;28;20044;-46
2022/01/11 13:05:12;;;;;;;4.65;2.60;;;14.90;88.60;;;;;;5054455;28;20033;-47
2022/01/11 13:07:44;;;;;;;3.53;2.28;;;14.90;88.60;;;;;;5054384;28;20072;-48
2022/01/11 13:10:27;;;;;;;4.90;2.88;;;15.00;82.20;;;;;;5054416;28;20048;-47
2022/01/11 13:12:53;;;;;;;4.20;2.40;;;;;;;;;;5054286;28;20032;-47
2022/01/11 13:15:36;;;;;;;3.22;2.03;;;14.80;82.00;;;;;;5054099;28;20033;-48
2022/01/11 13:18:10;;;;;;;4.40;3.03;;;14.80;82.30;;;;;;5053959;28;20033;-47
2022/01/11 13:20:38;;;;;;;4.60;2.47;;;14.80;88.50;;;;;;5054351;28;20360;-48
2022/01/11 13:23:11;;;;;;;5.15;2.75;;;;;;;;;;5054036;28;20059;-47
2022/01/11 13:25:52;;;;;;;3.83;2.42;;;14.60;82.50;;;;;;5054037;28;20475;-46
2022/01/11 13:28:32;;;;;;;4.32;2.58;;;14.50;82.40;;;;;;5053940;28;20277;-47
2022/01/11 13:30:58;;;;;;;5.20;2.67;;;;;;;;;;5054093;28;20438;-47
2022/01/11 13:33:30;;;;;;;4.25;2.50;;;14.50;88.90;;;;;;5053936;28;20033;-48
2022/01/11 13:35:58;;;;;;;2.83;2.30;;;14.20;87.00;;;;;;5053989;28;20086;-48
2022/01/11 13:38:33;;;;;;;4.07;2.30;;;14.40;89.20;;;;;;5053760;28;20025;-48
2022/01/11 13:41:01;;;;;;;4.57;2.28;;;14.50;89.60;;;;;;5053849;28;20025;-47
2022/01/11 13:43:38;;;;;;;3.00;2.03;;;14.40;83.10;;;;;;5053635;28;20036;-48
2022/01/11 13:46:13;;;;;;;3.28;2.17;;;14.40;89.30;;;;;;5053736;28;20028;-47
2022/01/11 13:48:39;;;;;;;5.05;2.55;;;;;;;;;;5053631;28;20021;-47
2022/01/11 13:51:05;;;;;;;4.38;2.38;;;;;;;;;;5053727;28;20039;-46
2022/01/11 13:53:33;;;;;;;4.15;2.15;;;14.40;89.40;;;;;;5053493;28;20029;-46
2022/01/11 13:56:01;;;;;;;3.78;2.22;;;14.50;89.10;;;;;;5053726;28;20029;-46
2022/01/11 13:58:29;;;;;;;2.88;2.10;;;14.50;85.20;;;;;;5053309;28;20049;-46
2022/01/11 14:00:55;;;;;;;3.75;2.67;;;;;;;;;;5053347;28;20025;-47
2022/01/11 14:03:22;;;;;;;3.55;2.20;;;14.60;88.80;;;;;;5053113;28;20095;-47
2022/01/11 14:05:48;;;;;;;6.43;2.53;;;;;;;;;;5053532;28;20451;-47
2022/01/11 14:08:14;;;;;;;3.67;2.15;;;;;;;;;;5053308;28;20391;-46
2022/01/11 14:10:52;;;;;;;3.25;2.22;;;;;;;;;;5053416;28;20028;-46
2022/01/11 14:13:18;;;;;;;4.93;2.97;;;;;;;;;;5053415;28;20059;-46